sensor_id;sensor_type;location;lat;lon;timestamp;pressure;altitude;pressure_sealevel;temperature;humidity
26563;BME280;14217;50.986;5.826;2023-06-26T00:00:47;100667.56;;;30.00;36.79
26563;BME280;14217;50.986;5.826;2023-06-26T00:05:50;100671.25;;;30.09;36.34
26563;BME280;14217;50.986;5.826;2023-06-26T00:10:52;100660.84;;;30.04;36.28
26563;BME280;14217;50.986;5.826;2023-06-26T00:15:54;100665.13;;;30.07;36.19
26563;BME280;14217;50.986;5.826;2023-06-26T00:20:57;100669.97;;;30.03;36.25
26563;BME280;14217;50.986;5.826;2023-06-26T00:25:59;100662.25;;;30.08;35.94
26563;BME280;14217;50.986;5.826;2023-06-26T00:31:01;100672.38;;;30.06;35.70
26563;BME280;14217;50.986;5.826;2023-06-26T00:36:03;100683.34;;;30.05;35.75
26563;BME280;14217;50.986;5.826;2023-06-26T00:41:05;100676.78;;;30.07;35.71
26563;BME280;14217;50.986;5.826;2023-06-26T00:46:14;100669.53;;;30.08;35.57
26563;BME280;14217;50.986;5.826;2023-06-26T00:51:16;100665.84;;;30.09;35.42
26563;BME280;14217;50.986;5.826;2023-06-26T00:56:19;100665.66;;;30.10;35.10
26563;BME280;14217;50.986;5.826;2023-06-26T01:01:21;100668.69;;;30.07;35.43
26563;BME280;14217;50.986;5.826;2023-06-26T01:06:28;100668.97;;;30.04;35.42
26563;BME280;14217;50.986;5.826;2023-06-26T01:11:33;100671.53;;;30.06;35.28
26563;BME280;14217;50.986;5.826;2023-06-26T01:16:35;100670.69;;;30.05;35.44
26563;BME280;14217;50.986;5.826;2023-06-26T01:21:42;100660.25;;;30.10;35.42
26563;BME280;14217;50.986;5.826;2023-06-26T01:26:45;100668.69;;;30.07;35.26
26563;BME280;14217;50.986;5.826;2023-06-26T01:31:48;100675.50;;;30.11;35.62
26563;BME280;14217;50.986;5.826;2023-06-26T01:36:51;100688.75;;;30.05;35.65
26563;BME280;14217;50.986;5.826;2023-06-26T01:41:53;100691.16;;;30.08;35.87
26563;BME280;14217;50.986;5.826;2023-06-26T01:46:59;100698.53;;;30.06;35.79
26563;BME280;14217;50.986;5.826;2023-06-26T01:57:30;100704.50;;;30.09;35.92
26563;BME280;14217;50.986;5.826;2023-06-26T02:02:34;100702.25;;;30.05;35.84
26563;BME280;14217;50.986;5.826;2023-06-26T02:07:36;100723.00;;;30.04;36.15
26563;BME280;14217;50.986;5.826;2023-06-26T02:12:39;100714.75;;;30.06;36.14
26563;BME280;14217;50.986;5.826;2023-06-26T02:17:41;100724.72;;;30.05;36.00
26563;BME280;14217;50.986;5.826;2023-06-26T02:22:43;100726.72;;;30.03;36.05
26563;BME280;14217;50.986;5.826;2023-06-26T02:27:45;100739.78;;;30.08;35.76
26563;BME280;14217;50.986;5.826;2023-06-26T02:32:47;100737.78;;;30.10;35.96
26563;BME280;14217;50.986;5.826;2023-06-26T02:37:49;100745.03;;;30.09;35.68
26563;BME280;14217;50.986;5.826;2023-06-26T02:42:51;100749.75;;;30.07;35.80
26563;BME280;14217;50.986;5.826;2023-06-26T02:47:53;100755.28;;;30.06;36.03
26563;BME280;14217;50.986;5.826;2023-06-26T02:52:56;100755.84;;;30.09;35.97
26563;BME280;14217;50.986;5.826;2023-06-26T02:57:57;100765.09;;;30.07;36.36
26563;BME280;14217;50.986;5.826;2023-06-26T03:02:59;100767.63;;;30.08;36.15
26563;BME280;14217;50.986;5.826;2023-06-26T03:08:02;100774.34;;;30.04;36.52
26563;BME280;14217;50.986;5.826;2023-06-26T03:13:04;100773.34;;;30.05;36.23
26563;BME280;14217;50.986;5.826;2023-06-26T03:18:06;100773.63;;;30.02;36.28
26563;BME280;14217;50.986;5.826;2023-06-26T03:23:08;100789.25;;;30.08;36.30
26563;BME280;14217;50.986;5.826;2023-06-26T03:28:10;100790.53;;;30.04;36.34
26563;BME280;14217;50.986;5.826;2023-06-26T03:33:12;100797.09;;;30.02;36.11
26563;BME280;14217;50.986;5.826;2023-06-26T03:38:14;100795.09;;;30.04;35.98
26563;BME280;14217;50.986;5.826;2023-06-26T03:43:16;100810.34;;;30.05;36.16
26563;BME280;14217;50.986;5.826;2023-06-26T03:48:18;100823.84;;;30.05;36.27
26563;BME280;14217;50.986;5.826;2023-06-26T03:53:20;100830.81;;;30.07;36.21
26563;BME280;14217;50.986;5.826;2023-06-26T03:58:22;100831.94;;;30.05;36.61
26563;BME280;14217;50.986;5.826;2023-06-26T04:03:24;100836.19;;;30.07;36.55
26563;BME280;14217;50.986;5.826;2023-06-26T04:08:26;100828.09;;;30.07;36.45
26563;BME280;14217;50.986;5.826;2023-06-26T04:13:28;100843.59;;;30.05;36.48
26563;BME280;14217;50.986;5.826;2023-06-26T04:18:30;100845.88;;;30.00;36.62
26563;BME280;14217;50.986;5.826;2023-06-26T04:23:32;100847.28;;;30.04;36.31
26563;BME280;14217;50.986;5.826;2023-06-26T04:28:35;100842.88;;;30.03;36.09
26563;BME280;14217;50.986;5.826;2023-06-26T04:33:37;100846.44;;;30.04;36.00
26563;BME280;14217;50.986;5.826;2023-06-26T04:38:43;100859.09;;;30.03;35.88
26563;BME280;14217;50.986;5.826;2023-06-26T04:43:45;100855.28;;;29.96;36.01
26563;BME280;14217;50.986;5.826;2023-06-26T04:48:47;100866.38;;;30.03;35.88
26563;BME280;14217;50.986;5.826;2023-06-26T04:53:49;100876.03;;;30.05;35.64
26563;BME280;14217;50.986;5.826;2023-06-26T04:58:51;100878.84;;;30.04;35.56
26563;BME280;14217;50.986;5.826;2023-06-26T05:03:53;100884.13;;;30.05;35.56
26563;BME280;14217;50.986;5.826;2023-06-26T05:08:55;100885.69;;;30.08;35.63
26563;BME280;14217;50.986;5.826;2023-06-26T05:13:56;100883.72;;;29.90;36.08
26563;BME280;14217;50.986;5.826;2023-06-26T05:18:58;100883.84;;;29.89;36.12
26563;BME280;14217;50.986;5.826;2023-06-26T05:24:02;100880.16;;;29.90;36.16
26563;BME280;14217;50.986;5.826;2023-06-26T05:29:07;100898.78;;;29.93;36.83
26563;BME280;14217;50.986;5.826;2023-06-26T05:34:10;100897.34;;;29.89;37.46
26563;BME280;14217;50.986;5.826;2023-06-26T05:39:12;100903.03;;;29.95;37.50
26563;BME280;14217;50.986;5.826;2023-06-26T05:44:14;100900.75;;;29.81;39.41
26563;BME280;14217;50.986;5.826;2023-06-26T05:49:16;100899.19;;;29.78;39.70
26563;BME280;14217;50.986;5.826;2023-06-26T05:54:18;100905.53;;;29.68;39.44
26563;BME280;14217;50.986;5.826;2023-06-26T05:59:21;100910.22;;;29.66;38.90
26563;BME280;14217;50.986;5.826;2023-06-26T06:04:24;100918.75;;;29.61;38.93
26563;BME280;14217;50.986;5.826;2023-06-26T06:09:26;100917.09;;;29.70;38.65
26563;BME280;14217;50.986;5.826;2023-06-26T06:14:27;100929.44;;;29.72;38.51
26563;BME280;14217;50.986;5.826;2023-06-26T06:19:30;100941.69;;;29.76;38.38
26563;BME280;14217;50.986;5.826;2023-06-26T06:24:32;100951.22;;;29.81;37.90
26563;BME280;14217;50.986;5.826;2023-06-26T06:29:34;100958.13;;;29.64;38.34
26563;BME280;14217;50.986;5.826;2023-06-26T06:34:36;100955.91;;;29.78;37.92
26563;BME280;14217;50.986;5.826;2023-06-26T06:39:38;100972.13;;;29.88;37.50
26563;BME280;14217;50.986;5.826;2023-06-26T06:44:40;100974.81;;;29.38;38.14
26563;BME280;14217;50.986;5.826;2023-06-26T06:49:42;100983.38;;;29.53;38.06
26563;BME280;14217;50.986;5.826;2023-06-26T06:54:54;100982.00;;;29.68;37.99
26563;BME280;14217;50.986;5.826;2023-06-26T06:59:56;100974.78;;;29.69;38.09
26563;BME280;14217;50.986;5.826;2023-06-26T07:04:59;100982.34;;;29.75;38.04
26563;BME280;14217;50.986;5.826;2023-06-26T07:10:03;100991.81;;;29.69;38.08
26563;BME280;14217;50.986;5.826;2023-06-26T07:15:06;100991.88;;;29.79;38.08
26563;BME280;14217;50.986;5.826;2023-06-26T07:20:09;101008.47;;;29.74;38.04
26563;BME280;14217;50.986;5.826;2023-06-26T07:25:17;101009.38;;;29.75;38.04
26563;BME280;14217;50.986;5.826;2023-06-26T07:30:18;101017.91;;;29.80;37.82
26563;BME280;14217;50.986;5.826;2023-06-26T07:35:21;101035.09;;;29.79;37.49
26563;BME280;14217;50.986;5.826;2023-06-26T07:40:23;101044.59;;;29.73;37.67
26563;BME280;14217;50.986;5.826;2023-06-26T07:45:25;101036.22;;;29.76;37.38
26563;BME280;14217;50.986;5.826;2023-06-26T07:50:27;101043.47;;;29.76;37.35
26563;BME280;14217;50.986;5.826;2023-06-26T07:55:29;101046.88;;;29.78;37.27
26563;BME280;14217;50.986;5.826;2023-06-26T08:00:31;101055.41;;;29.73;36.96
26563;BME280;14217;50.986;5.826;2023-06-26T08:05:33;101058.88;;;29.64;36.86
26563;BME280;14217;50.986;5.826;2023-06-26T08:10:36;101068.25;;;29.60;36.86
26563;BME280;14217;50.986;5.826;2023-06-26T08:15:39;101071.94;;;29.59;36.75
26563;BME280;14217;50.986;5.826;2023-06-26T08:20:41;101076.63;;;29.57;36.61
26563;BME280;14217;50.986;5.826;2023-06-26T08:25:43;101061.09;;;29.49;36.79
26563;BME280;14217;50.986;5.826;2023-06-26T08:30:45;101079.22;;;29.37;36.43
26563;BME280;14217;50.986;5.826;2023-06-26T08:35:47;101073.66;;;29.29;35.58
26563;BME280;14217;50.986;5.826;2023-06-26T08:40:49;101085.34;;;29.39;35.49
26563;BME280;14217;50.986;5.826;2023-06-26T08:45:51;101079.97;;;29.49;35.38
26563;BME280;14217;50.986;5.826;2023-06-26T08:50:54;101083.69;;;29.48;35.10
26563;BME280;14217;50.986;5.826;2023-06-26T08:55:57;101079.25;;;29.47;35.11
26563;BME280;14217;50.986;5.826;2023-06-26T09:01:00;101075.72;;;29.47;35.29
26563;BME280;14217;50.986;5.826;2023-06-26T09:06:03;101083.16;;;29.54;35.36
26563;BME280;14217;50.986;5.826;2023-06-26T09:11:05;101084.13;;;29.53;35.65
26563;BME280;14217;50.986;5.826;2023-06-26T09:16:07;101086.94;;;29.42;35.74
26563;BME280;14217;50.986;5.826;2023-06-26T09:21:10;101094.63;;;29.47;35.38
26563;BME280;14217;50.986;5.826;2023-06-26T09:26:14;101107.31;;;29.56;35.21
26563;BME280;14217;50.986;5.826;2023-06-26T09:31:16;101101.56;;;29.70;35.13
26563;BME280;14217;50.986;5.826;2023-06-26T09:36:39;101100.06;;;29.77;35.06
26563;BME280;14217;50.986;5.826;2023-06-26T09:41:43;101101.91;;;29.77;34.81
26563;BME280;14217;50.986;5.826;2023-06-26T09:46:46;101109.84;;;29.78;34.76
26563;BME280;14217;50.986;5.826;2023-06-26T09:51:49;101109.84;;;29.78;34.56
26563;BME280;14217;50.986;5.826;2023-06-26T09:56:52;101118.00;;;29.88;34.23
26563;BME280;14217;50.986;5.826;2023-06-26T10:01:59;101120.72;;;29.88;34.82
26563;BME280;14217;50.986;5.826;2023-06-26T10:07:04;101124.53;;;29.86;33.75
26563;BME280;14217;50.986;5.826;2023-06-26T10:12:19;101128.22;;;29.85;33.46
26563;BME280;14217;50.986;5.826;2023-06-26T10:17:26;101128.84;;;29.67;32.63
26563;BME280;14217;50.986;5.826;2023-06-26T10:22:33;101117.41;;;29.75;32.78
26563;BME280;14217;50.986;5.826;2023-06-26T10:27:40;101117.41;;;29.85;32.95
26563;BME280;14217;50.986;5.826;2023-06-26T10:32:43;101117.47;;;29.94;33.19
26563;BME280;14217;50.986;5.826;2023-06-26T10:37:48;101134.66;;;29.93;33.13
26563;BME280;14217;50.986;5.826;2023-06-26T10:42:50;101134.53;;;29.95;33.33
26563;BME280;14217;50.986;5.826;2023-06-26T10:47:53;101131.94;;;29.93;33.38
26563;BME280;14217;50.986;5.826;2023-06-26T10:58:31;101140.50;;;29.98;33.10
26563;BME280;14217;50.986;5.826;2023-06-26T11:03:33;101157.69;;;29.97;33.26
26563;BME280;14217;50.986;5.826;2023-06-26T11:08:52;101153.00;;;29.99;33.30
26563;BME280;14217;50.986;5.826;2023-06-26T11:13:56;101132.53;;;29.97;33.14
26563;BME280;14217;50.986;5.826;2023-06-26T11:18:58;101152.47;;;29.96;33.13
26563;BME280;14217;50.986;5.826;2023-06-26T11:24:01;101153.88;;;30.00;32.81
26563;BME280;14217;50.986;5.826;2023-06-26T11:29:04;101163.69;;;30.01;32.70
26563;BME280;14217;50.986;5.826;2023-06-26T11:34:08;101163.25;;;29.96;32.77
26563;BME280;14217;50.986;5.826;2023-06-26T11:39:13;101172.94;;;29.98;32.57
26563;BME280;14217;50.986;5.826;2023-06-26T11:44:15;101175.47;;;30.00;32.30
26563;BME280;14217;50.986;5.826;2023-06-26T11:49:22;101178.34;;;29.98;32.40
26563;BME280;14217;50.986;5.826;2023-06-26T11:54:26;101178.78;;;30.04;32.37
26563;BME280;14217;50.986;5.826;2023-06-26T11:59:37;101192.16;;;30.05;30.52
26563;BME280;14217;50.986;5.826;2023-06-26T12:04:43;101211.25;;;30.13;29.96
26563;BME280;14217;50.986;5.826;2023-06-26T12:09:47;101213.97;;;30.13;28.10
26563;BME280;14217;50.986;5.826;2023-06-26T12:14:51;101216.72;;;30.02;31.68
26563;BME280;14217;50.986;5.826;2023-06-26T12:19:53;101222.22;;;29.91;29.68
26563;BME280;14217;50.986;5.826;2023-06-26T12:24:56;101225.03;;;29.79;28.51
26563;BME280;14217;50.986;5.826;2023-06-26T12:29:58;101211.44;;;29.70;27.70
26563;BME280;14217;50.986;5.826;2023-06-26T12:35:01;101218.47;;;29.61;27.84
26563;BME280;14217;50.986;5.826;2023-06-26T12:40:03;101217.03;;;29.57;27.38
26563;BME280;14217;50.986;5.826;2023-06-26T12:45:12;101222.44;;;29.57;27.49
26563;BME280;14217;50.986;5.826;2023-06-26T12:50:37;101229.41;;;29.59;27.71
26563;BME280;14217;50.986;5.826;2023-06-26T12:55:40;101217.63;;;29.61;27.33
26563;BME280;14217;50.986;5.826;2023-06-26T13:00:42;101232.41;;;29.66;27.39
26563;BME280;14217;50.986;5.826;2023-06-26T13:05:44;101232.38;;;29.56;27.23
26563;BME280;14217;50.986;5.826;2023-06-26T13:10:46;101236.19;;;29.54;27.20
26563;BME280;14217;50.986;5.826;2023-06-26T13:15:48;101222.22;;;29.49;27.50
26563;BME280;14217;50.986;5.826;2023-06-26T13:20:50;101231.66;;;29.54;27.60
26563;BME280;14217;50.986;5.826;2023-06-26T13:25:53;101231.78;;;29.53;27.15
26563;BME280;14217;50.986;5.826;2023-06-26T13:30:55;101217.22;;;29.65;27.34
26563;BME280;14217;50.986;5.826;2023-06-26T13:35:57;101215.19;;;29.78;27.58
26563;BME280;14217;50.986;5.826;2023-06-26T13:41:00;101223.38;;;29.88;27.98
26563;BME280;14217;50.986;5.826;2023-06-26T13:46:03;101218.94;;;29.87;28.22
26563;BME280;14217;50.986;5.826;2023-06-26T13:51:05;101229.16;;;29.84;27.58
26563;BME280;14217;50.986;5.826;2023-06-26T13:56:07;101226.91;;;29.89;28.29
26563;BME280;14217;50.986;5.826;2023-06-26T14:01:09;101243.41;;;29.86;28.42
26563;BME280;14217;50.986;5.826;2023-06-26T14:06:11;101240.88;;;29.94;28.43
26563;BME280;14217;50.986;5.826;2023-06-26T14:11:13;101245.16;;;29.96;28.60
26563;BME280;14217;50.986;5.826;2023-06-26T14:16:17;101244.16;;;29.97;28.57
26563;BME280;14217;50.986;5.826;2023-06-26T14:21:20;101245.03;;;29.98;28.61
26563;BME280;14217;50.986;5.826;2023-06-26T14:26:23;101246.75;;;29.99;28.38
26563;BME280;14217;50.986;5.826;2023-06-26T14:31:25;101243.19;;;29.98;28.49
26563;BME280;14217;50.986;5.826;2023-06-26T14:36:27;101246.00;;;29.97;28.81
26563;BME280;14217;50.986;5.826;2023-06-26T14:41:30;101251.13;;;30.00;28.65
26563;BME280;14217;50.986;5.826;2023-06-26T14:46:33;101252.00;;;30.01;28.54
26563;BME280;14217;50.986;5.826;2023-06-26T14:51:35;101243.19;;;29.98;28.79
26563;BME280;14217;50.986;5.826;2023-06-26T14:56:37;101245.16;;;29.96;28.90
26563;BME280;14217;50.986;5.826;2023-06-26T15:01:39;101239.63;;;29.98;28.77
26563;BME280;14217;50.986;5.826;2023-06-26T15:06:41;101253.84;;;30.00;28.74
26563;BME280;14217;50.986;5.826;2023-06-26T15:11:43;101268.22;;;30.01;28.75
26563;BME280;14217;50.986;5.826;2023-06-26T15:16:45;101261.69;;;30.03;28.39
26563;BME280;14217;50.986;5.826;2023-06-26T15:21:48;101257.41;;;30.01;29.03
26563;BME280;14217;50.986;5.826;2023-06-26T15:26:50;101256.53;;;30.00;28.91
26563;BME280;14217;50.986;5.826;2023-06-26T15:31:52;101249.16;;;30.02;28.55
26563;BME280;14217;50.986;5.826;2023-06-26T15:36:55;101254.00;;;29.98;28.27
26563;BME280;14217;50.986;5.826;2023-06-26T15:41:59;101250.16;;;30.01;27.96
26563;BME280;14217;50.986;5.826;2023-06-26T15:47:00;101257.00;;;30.05;28.14
26563;BME280;14217;50.986;5.826;2023-06-26T15:52:03;101256.81;;;29.97;28.25
26563;BME280;14217;50.986;5.826;2023-06-26T15:57:05;101249.78;;;29.85;28.60
26563;BME280;14217;50.986;5.826;2023-06-26T16:02:07;101248.13;;;29.72;28.49
26563;BME280;14217;50.986;5.826;2023-06-26T16:07:09;101254.66;;;29.91;27.82
26563;BME280;14217;50.986;5.826;2023-06-26T16:12:11;101260.47;;;29.86;27.09
26563;BME280;14217;50.986;5.826;2023-06-26T16:17:13;101260.06;;;29.91;27.07
26563;BME280;14217;50.986;5.826;2023-06-26T16:22:15;101264.84;;;29.87;27.13
26563;BME280;14217;50.986;5.826;2023-06-26T16:27:18;101261.06;;;29.90;26.75
26563;BME280;14217;50.986;5.826;2023-06-26T16:32:19;101260.19;;;29.89;26.88
26563;BME280;14217;50.986;5.826;2023-06-26T16:37:21;101261.19;;;29.88;27.33
26563;BME280;14217;50.986;5.826;2023-06-26T16:42:23;101256.50;;;29.90;27.81
26563;BME280;14217;50.986;5.826;2023-06-26T16:47:25;101259.31;;;29.89;27.65
26563;BME280;14217;50.986;5.826;2023-06-26T16:52:31;101268.75;;;29.94;27.71
26563;BME280;14217;50.986;5.826;2023-06-26T16:57:32;101268.47;;;29.97;27.96
26563;BME280;14217;50.986;5.826;2023-06-26T17:02:34;101269.75;;;29.72;28.55
26563;BME280;14217;50.986;5.826;2023-06-26T17:07:37;101272.94;;;29.66;28.35
26563;BME280;14217;50.986;5.826;2023-06-26T17:12:39;101274.53;;;29.69;28.21
26563;BME280;14217;50.986;5.826;2023-06-26T17:17:42;101283.34;;;29.50;28.44
26563;BME280;14217;50.986;5.826;2023-06-26T17:22:44;101280.69;;;29.71;28.52
26563;BME280;14217;50.986;5.826;2023-06-26T17:27:48;101286.53;;;29.76;28.73
26563;BME280;14217;50.986;5.826;2023-06-26T17:32:51;101293.22;;;29.28;29.52
26563;BME280;14217;50.986;5.826;2023-06-26T17:37:53;101289.78;;;29.70;28.81
26563;BME280;14217;50.986;5.826;2023-06-26T17:42:56;101301.94;;;29.85;28.60
26563;BME280;14217;50.986;5.826;2023-06-26T17:47:58;101303.69;;;29.86;28.55
26563;BME280;14217;50.986;5.826;2023-06-26T17:53:00;101303.69;;;29.86;28.51
26563;BME280;14217;50.986;5.826;2023-06-26T17:58:02;101300.16;;;29.74;28.77
26563;BME280;14217;50.986;5.826;2023-06-26T18:03:04;101308.25;;;29.86;28.76
26563;BME280;14217;50.986;5.826;2023-06-26T18:08:06;101305.53;;;29.86;28.78
26563;BME280;14217;50.986;5.826;2023-06-26T18:13:08;101319.88;;;29.86;28.69
26563;BME280;14217;50.986;5.826;2023-06-26T18:18:11;101319.28;;;29.83;28.75
26563;BME280;14217;50.986;5.826;2023-06-26T18:23:13;101329.84;;;29.86;28.72
26563;BME280;14217;50.986;5.826;2023-06-26T18:28:15;101338.69;;;29.88;28.74
26563;BME280;14217;50.986;5.826;2023-06-26T18:33:17;101355.13;;;29.85;28.68
26563;BME280;14217;50.986;5.826;2023-06-26T18:38:19;101349.72;;;29.85;28.36
26563;BME280;14217;50.986;5.826;2023-06-26T18:43:22;101352.31;;;29.86;28.62
26563;BME280;14217;50.986;5.826;2023-06-26T18:48:24;101349.47;;;29.88;28.23
26563;BME280;14217;50.986;5.826;2023-06-26T18:53:26;101354.94;;;29.65;28.43
26563;BME280;14217;50.986;5.826;2023-06-26T18:58:28;101350.41;;;29.77;27.98
26563;BME280;14217;50.986;5.826;2023-06-26T19:03:30;101351.81;;;29.81;27.77
26563;BME280;14217;50.986;5.826;2023-06-26T19:08:32;101354.69;;;29.79;27.80
26563;BME280;14217;50.986;5.826;2023-06-26T19:13:34;101362.63;;;29.81;27.30
26563;BME280;14217;50.986;5.826;2023-06-26T19:18:36;101371.84;;;29.78;27.37
26563;BME280;14217;50.986;5.826;2023-06-26T19:23:38;101362.78;;;29.79;27.33
26563;BME280;14217;50.986;5.826;2023-06-26T19:28:40;101369.31;;;29.77;27.21
26563;BME280;14217;50.986;5.826;2023-06-26T19:33:42;101373.09;;;29.74;27.30
26563;BME280;14217;50.986;5.826;2023-06-26T19:38:45;101372.75;;;29.79;27.32
26563;BME280;14217;50.986;5.826;2023-06-26T19:43:47;101375.69;;;29.76;27.35
26563;BME280;14217;50.986;5.826;2023-06-26T19:48:49;101373.72;;;29.78;27.41
26563;BME280;14217;50.986;5.826;2023-06-26T19:53:51;101372.50;;;29.59;27.63
26563;BME280;14217;50.986;5.826;2023-06-26T19:58:53;101378.00;;;29.69;27.53
26563;BME280;14217;50.986;5.826;2023-06-26T20:03:55;101385.63;;;29.75;27.53
26563;BME280;14217;50.986;5.826;2023-06-26T20:08:57;101382.19;;;29.73;27.36
26563;BME280;14217;50.986;5.826;2023-06-26T20:14:01;101391.97;;;29.42;27.44
26563;BME280;14217;50.986;5.826;2023-06-26T20:19:03;101400.38;;;29.16;27.21
26563;BME280;14217;50.986;5.826;2023-06-26T20:24:08;101396.31;;;29.22;27.18
26563;BME280;14217;50.986;5.826;2023-06-26T20:29:10;101404.19;;;29.14;27.43
26563;BME280;14217;50.986;5.826;2023-06-26T20:34:12;101399.38;;;29.06;27.22
26563;BME280;14217;50.986;5.826;2023-06-26T20:39:14;101399.09;;;29.09;27.15
26563;BME280;14217;50.986;5.826;2023-06-26T20:44:16;101407.34;;;29.08;27.16
26563;BME280;14217;50.986;5.826;2023-06-26T20:49:18;101413.50;;;29.10;27.23
26563;BME280;14217;50.986;5.826;2023-06-26T20:54:20;101410.28;;;29.05;27.69
26563;BME280;14217;50.986;5.826;2023-06-26T20:59:22;101413.97;;;29.04;28.51
26563;BME280;14217;50.986;5.826;2023-06-26T21:04:24;101414.94;;;28.91;27.86
26563;BME280;14217;50.986;5.826;2023-06-26T21:09:26;101423.38;;;29.09;28.08
26563;BME280;14217;50.986;5.826;2023-06-26T21:14:29;101427.34;;;29.16;27.98
26563;BME280;14217;50.986;5.826;2023-06-26T21:19:31;101421.47;;;29.23;29.70
26563;BME280;14217;50.986;5.826;2023-06-26T21:24:33;101428.41;;;29.36;29.42
26563;BME280;14217;50.986;5.826;2023-06-26T21:29:35;101419.47;;;29.36;29.34
26563;BME280;14217;50.986;5.826;2023-06-26T21:34:37;101427.91;;;29.43;29.10
26563;BME280;14217;50.986;5.826;2023-06-26T21:39:38;101433.31;;;29.43;28.84
26563;BME280;14217;50.986;5.826;2023-06-26T21:44:41;101434.91;;;29.45;28.91
26563;BME280;14217;50.986;5.826;2023-06-26T21:49:43;101434.78;;;29.47;29.00
26563;BME280;14217;50.986;5.826;2023-06-26T21:54:45;101446.56;;;29.46;28.81
26563;BME280;14217;50.986;5.826;2023-06-26T21:59:47;101442.75;;;29.48;28.94
26563;BME280;14217;50.986;5.826;2023-06-26T22:04:49;101446.06;;;29.52;28.89
26563;BME280;14217;50.986;5.826;2023-06-26T22:09:50;101449.75;;;29.51;28.90
26563;BME280;14217;50.986;5.826;2023-06-26T22:14:53;101446.19;;;29.50;28.63
26563;BME280;14217;50.986;5.826;2023-06-26T22:19:56;101448.28;;;29.47;28.71
26563;BME280;14217;50.986;5.826;2023-06-26T22:24:58;101450.34;;;29.54;28.61
26563;BME280;14217;50.986;5.826;2023-06-26T22:30:00;101451.31;;;29.53;28.55
26563;BME280;14217;50.986;5.826;2023-06-26T22:35:02;101447.31;;;29.48;28.61
26563;BME280;14217;50.986;5.826;2023-06-26T22:40:05;101439.44;;;29.56;28.41
26563;BME280;14217;50.986;5.826;2023-06-26T22:45:11;101437.75;;;29.44;28.74
26563;BME280;14217;50.986;5.826;2023-06-26T22:50:13;101433.09;;;29.46;28.72
26563;BME280;14217;50.986;5.826;2023-06-26T22:55:16;101437.59;;;29.45;28.70
26563;BME280;14217;50.986;5.826;2023-06-26T23:00:18;101427.78;;;29.44;28.70
26563;BME280;14217;50.986;5.826;2023-06-26T23:05:20;101437.75;;;29.44;28.61
26563;BME280;14217;50.986;5.826;2023-06-26T23:10:22;101436.63;;;29.46;28.61
26563;BME280;14217;50.986;5.826;2023-06-26T23:15:23;101433.94;;;29.46;28.49
26563;BME280;14217;50.986;5.826;2023-06-26T23:20:26;101432.34;;;29.44;28.67
26563;BME280;14217;50.986;5.826;2023-06-26T23:25:28;101433.19;;;29.44;28.67
26563;BME280;14217;50.986;5.826;2023-06-26T23:30:36;101432.34;;;29.44;28.70
26563;BME280;14217;50.986;5.826;2023-06-26T23:35:38;101434.53;;;29.38;28.87
26563;BME280;14217;50.986;5.826;2023-06-26T23:40:41;101435.44;;;29.39;28.90
26563;BME280;14217;50.986;5.826;2023-06-26T23:45:43;101436.50;;;29.36;28.75
26563;BME280;14217;50.986;5.826;2023-06-26T23:50:47;101437.88;;;29.42;28.62
26563;BME280;14217;50.986;5.826;2023-06-26T23:55:49;101438.72;;;29.43;28.90
